AUA1503 EDDS-LOWW
Flight info
| Callsign | AUA1503 |
|---|---|
| Flight time | 0h 53m |
| Altitude | 31000 |
| Route | ABTAL4B/25 ABTAL L173 RIXED Y161 RIDAR Z98 MIQ L605 BIBAG Q104 AKIMA DCT MASUR MASUR3W |
| Aircraft | A388/J-SADE2E3FGHIJ3J4J5M1RWXY/LB1D1 |
Departure
| Time | 2026-05-06 18:06 |
|---|---|
| Airport | Stuttgart Airport (EDDS) |
Arrival
| Time | 2026-05-06 18:59 |
|---|---|
| Airport | Vienna International Airport (LOWW) |
| Time | Latitude | Longitude | Altitude | Speed | Heading |
|---|---|---|---|---|---|
| 2026-05-06 17:43 | 48.69132 | 9.20751 | 1290 ft | 0 kts | 160° |
| 2026-05-06 17:56 | 48.69140 | 9.20746 | 1290 ft | 3 kts | 160° |
| 2026-05-06 17:56 | 48.69158 | 9.20738 | 1290 ft | 3 kts | 172° |
| 2026-05-06 17:56 | 48.69172 | 9.20749 | 1290 ft | 0 kts | 227° |
| 2026-05-06 17:56 | 48.69169 | 9.20744 | 1290 ft | 1 kts | 222° |
| 2026-05-06 17:57 | 48.69163 | 9.20733 | 1290 ft | 0 kts | 250° |
| 2026-05-06 17:58 | 48.69152 | 9.20686 | 1290 ft | 6 kts | 251° |
| 2026-05-06 17:58 | 48.69137 | 9.20615 | 1290 ft | 8 kts | 253° |
| 2026-05-06 17:58 | 48.69115 | 9.20527 | 1290 ft | 9 kts | 237° |
| 2026-05-06 17:59 | 48.69079 | 9.20481 | 1290 ft | 5 kts | 185° |
| 2026-05-06 17:59 | 48.69046 | 9.20500 | 1290 ft | 6 kts | 140° |
| 2026-05-06 17:59 | 48.69019 | 9.20538 | 1290 ft | 5 kts | 134° |
| 2026-05-06 17:59 | 48.68981 | 9.20596 | 1290 ft | 10 kts | 130° |
| 2026-05-06 18:00 | 48.68963 | 9.20686 | 1290 ft | 12 kts | 78° |
| 2026-05-06 18:00 | 48.68990 | 9.20833 | 1290 ft | 15 kts | 73° |
| 2026-05-06 18:00 | 48.69020 | 9.20989 | 1290 ft | 16 kts | 73° |
| 2026-05-06 18:00 | 48.69051 | 9.21151 | 1290 ft | 16 kts | 74° |
| 2026-05-06 18:01 | 48.69086 | 9.21337 | 1290 ft | 23 kts | 74° |
| 2026-05-06 18:01 | 48.69130 | 9.21570 | 1290 ft | 22 kts | 74° |
| 2026-05-06 18:01 | 48.69172 | 9.21790 | 1290 ft | 21 kts | 73° |
| 2026-05-06 18:01 | 48.69211 | 9.21995 | 1290 ft | 20 kts | 74° |
| 2026-05-06 18:02 | 48.69247 | 9.22185 | 1290 ft | 18 kts | 74° |
| 2026-05-06 18:02 | 48.69281 | 9.22357 | 1290 ft | 16 kts | 73° |
| 2026-05-06 18:02 | 48.69323 | 9.22577 | 1290 ft | 23 kts | 73° |
| 2026-05-06 18:02 | 48.69362 | 9.22792 | 1290 ft | 20 kts | 79° |
| 2026-05-06 18:03 | 48.69396 | 9.22972 | 1290 ft | 16 kts | 74° |
| 2026-05-06 18:03 | 48.69430 | 9.23149 | 1290 ft | 18 kts | 73° |
| 2026-05-06 18:03 | 48.69463 | 9.23318 | 1290 ft | 16 kts | 73° |
| 2026-05-06 18:03 | 48.69492 | 9.23468 | 1290 ft | 14 kts | 74° |
| 2026-05-06 18:04 | 48.69519 | 9.23614 | 1290 ft | 17 kts | 74° |
| 2026-05-06 18:04 | 48.69550 | 9.23782 | 1290 ft | 16 kts | 75° |
| 2026-05-06 18:04 | 48.69578 | 9.23934 | 1290 ft | 15 kts | 74° |
| 2026-05-06 18:04 | 48.69608 | 9.24113 | 1290 ft | 16 kts | 88° |
| 2026-05-06 18:05 | 48.69572 | 9.24252 | 1290 ft | 13 kts | 134° |
| 2026-05-06 18:05 | 48.69486 | 9.24322 | 1290 ft | 22 kts | 161° |
| 2026-05-06 18:05 | 48.69389 | 9.24290 | 1290 ft | 15 kts | 238° |
| 2026-05-06 18:05 | 48.69306 | 9.23871 | 1290 ft | 81 kts | 254° |
| 2026-05-06 18:06 | 48.69086 | 9.22718 | 1290 ft | 145 kts | 254° |
| 2026-05-06 18:06 | 48.68763 | 9.21073 | 1582 ft | 163 kts | 251° |
| 2026-05-06 18:06 | 48.68482 | 9.19468 | 2440 ft | 150 kts | 255° |
| 2026-05-06 18:06 | 48.68259 | 9.17954 | 3154 ft | 147 kts | 256° |
| 2026-05-06 18:07 | 48.67811 | 9.16480 | 3457 ft | 164 kts | 243° |
| 2026-05-06 18:07 | 48.67386 | 9.14803 | 3662 ft | 183 kts | 254° |
| 2026-05-06 18:07 | 48.67060 | 9.12849 | 3795 ft | 199 kts | 256° |
| 2026-05-06 18:07 | 48.66701 | 9.10738 | 3901 ft | 220 kts | 255° |
| 2026-05-06 18:08 | 48.66264 | 9.08456 | 4520 ft | 229 kts | 253° |
| 2026-05-06 18:08 | 48.65786 | 9.06143 | 5375 ft | 231 kts | 252° |
| 2026-05-06 18:08 | 48.65201 | 9.03863 | 6174 ft | 237 kts | 239° |
| 2026-05-06 18:08 | 48.64089 | 9.02001 | 6953 ft | 243 kts | 216° |
| 2026-05-06 18:09 | 48.62526 | 9.01013 | 7778 ft | 249 kts | 190° |
| 2026-05-06 18:09 | 48.60782 | 9.01225 | 8586 ft | 258 kts | 162° |
| 2026-05-06 18:09 | 48.59269 | 9.02710 | 9411 ft | 266 kts | 133° |
| 2026-05-06 18:09 | 48.58358 | 9.05152 | 10191 ft | 274 kts | 107° |
| 2026-05-06 18:10 | 48.58268 | 9.07998 | 10896 ft | 281 kts | 79° |
| 2026-05-06 18:10 | 48.59046 | 9.10713 | 11633 ft | 286 kts | 52° |
| 2026-05-06 18:10 | 48.60488 | 9.12793 | 12287 ft | 292 kts | 41° |
| 2026-05-06 18:10 | 48.61790 | 9.15275 | 12468 ft | 314 kts | 66° |
| 2026-05-06 18:11 | 48.62361 | 9.18530 | 12668 ft | 331 kts | 89° |
| 2026-05-06 18:11 | 48.62305 | 9.22085 | 12869 ft | 347 kts | 94° |
| 2026-05-06 18:11 | 48.62594 | 9.25799 | 13124 ft | 365 kts | 77° |
| 2026-05-06 18:11 | 48.63270 | 9.29534 | 13706 ft | 371 kts | 76° |
| 2026-05-06 18:12 | 48.63986 | 9.33289 | 14341 ft | 372 kts | 76° |
| 2026-05-06 18:12 | 48.64684 | 9.37001 | 14989 ft | 373 kts | 76° |
| 2026-05-06 18:12 | 48.65380 | 9.40783 | 15647 ft | 374 kts | 77° |
| 2026-05-06 18:12 | 48.65776 | 9.44649 | 16237 ft | 372 kts | 93° |
| 2026-05-06 18:13 | 48.65616 | 9.48554 | 16863 ft | 372 kts | 97° |
| 2026-05-06 18:13 | 48.65415 | 9.52464 | 17466 ft | 374 kts | 97° |
| 2026-05-06 18:13 | 48.65219 | 9.56396 | 18074 ft | 376 kts | 96° |
| 2026-05-06 18:13 | 48.65028 | 9.60349 | 18554 ft | 378 kts | 97° |
| 2026-05-06 18:14 | 48.64837 | 9.64352 | 18908 ft | 385 kts | 97° |
| 2026-05-06 18:14 | 48.64646 | 9.68390 | 19422 ft | 386 kts | 97° |
| 2026-05-06 18:14 | 48.64456 | 9.72445 | 19929 ft | 387 kts | 98° |
| 2026-05-06 18:14 | 48.64263 | 9.76525 | 20406 ft | 390 kts | 98° |
| 2026-05-06 18:15 | 48.64069 | 9.80620 | 20869 ft | 392 kts | 98° |
| 2026-05-06 18:15 | 48.63872 | 9.84690 | 21329 ft | 395 kts | 98° |
| 2026-05-06 18:15 | 48.63671 | 9.88836 | 21810 ft | 397 kts | 98° |
| 2026-05-06 18:15 | 48.63467 | 9.93004 | 22270 ft | 399 kts | 98° |
| 2026-05-06 18:16 | 48.63259 | 9.97198 | 22726 ft | 401 kts | 98° |
| 2026-05-06 18:16 | 48.63049 | 10.01419 | 23183 ft | 404 kts | 98° |
| 2026-05-06 18:16 | 48.62836 | 10.05670 | 23466 ft | 409 kts | 98° |
| 2026-05-06 18:16 | 48.62618 | 10.09984 | 23801 ft | 413 kts | 99° |
| 2026-05-06 18:17 | 48.62398 | 10.14319 | 24184 ft | 415 kts | 99° |
| 2026-05-06 18:17 | 48.62173 | 10.18693 | 24520 ft | 419 kts | 99° |
| 2026-05-06 18:17 | 48.61947 | 10.23088 | 24892 ft | 421 kts | 99° |
| 2026-05-06 18:17 | 48.61720 | 10.27461 | 25249 ft | 424 kts | 99° |
| 2026-05-06 18:18 | 48.61487 | 10.31920 | 25624 ft | 428 kts | 99° |
| 2026-05-06 18:18 | 48.61250 | 10.36406 | 26032 ft | 430 kts | 99° |
| 2026-05-06 18:18 | 48.61010 | 10.40926 | 26470 ft | 432 kts | 99° |
| 2026-05-06 18:18 | 48.60767 | 10.45470 | 26914 ft | 435 kts | 99° |
| 2026-05-06 18:19 | 48.60520 | 10.50050 | 27219 ft | 440 kts | 99° |
| 2026-05-06 18:19 | 48.60270 | 10.54643 | 27668 ft | 443 kts | 99° |
| 2026-05-06 18:19 | 48.60016 | 10.59295 | 28085 ft | 446 kts | 99° |
| 2026-05-06 18:19 | 48.59758 | 10.63985 | 28492 ft | 450 kts | 99° |
| 2026-05-06 18:20 | 48.59495 | 10.68704 | 28918 ft | 453 kts | 99° |
| 2026-05-06 18:20 | 48.59229 | 10.73469 | 29331 ft | 457 kts | 99° |
| 2026-05-06 18:20 | 48.58962 | 10.78202 | 29748 ft | 461 kts | 99° |
| 2026-05-06 18:20 | 48.58701 | 10.83044 | 30124 ft | 465 kts | 98° |
| 2026-05-06 18:21 | 48.58552 | 10.87948 | 30511 ft | 469 kts | 96° |
| 2026-05-06 18:21 | 48.58450 | 10.92882 | 30801 ft | 474 kts | 97° |
| 2026-05-06 18:21 | 48.58340 | 10.97915 | 30831 ft | 485 kts | 97° |
| 2026-05-06 18:21 | 48.58213 | 11.03078 | 30827 ft | 497 kts | 97° |
| 2026-05-06 18:22 | 48.57925 | 11.13598 | 30830 ft | 502 kts | 97° |
| 2026-05-06 18:22 | 48.57716 | 11.24148 | 30827 ft | 503 kts | 96° |
| 2026-05-06 18:23 | 48.57540 | 11.34629 | 30745 ft | 502 kts | 96° |
| 2026-05-06 18:23 | 48.57335 | 11.45183 | 30797 ft | 503 kts | 96° |
| 2026-05-06 18:24 | 48.57115 | 11.55737 | 30793 ft | 503 kts | 96° |
| 2026-05-06 18:24 | 48.56122 | 11.66069 | 30804 ft | 495 kts | 108° |
| 2026-05-06 18:25 | 48.54616 | 11.76222 | 30779 ft | 496 kts | 107° |
| 2026-05-06 18:25 | 48.53125 | 11.86422 | 30805 ft | 502 kts | 107° |
| 2026-05-06 18:26 | 48.51612 | 11.96694 | 30814 ft | 502 kts | 107° |
| 2026-05-06 18:26 | 48.50085 | 12.06962 | 30817 ft | 502 kts | 107° |
| 2026-05-06 18:27 | 48.48548 | 12.17222 | 30820 ft | 501 kts | 107° |
| 2026-05-06 18:27 | 48.46995 | 12.27519 | 30807 ft | 505 kts | 107° |
| 2026-05-06 18:28 | 48.45461 | 12.37653 | 30800 ft | 487 kts | 107° |
| 2026-05-06 18:28 | 48.43961 | 12.47487 | 30801 ft | 482 kts | 107° |
| 2026-05-06 18:29 | 48.42442 | 12.57344 | 30789 ft | 483 kts | 107° |
| 2026-05-06 18:29 | 48.41827 | 12.67464 | 30777 ft | 493 kts | 89° |
| 2026-05-06 18:30 | 48.42369 | 12.77770 | 30778 ft | 493 kts | 89° |
| 2026-05-06 18:30 | 48.42894 | 12.88067 | 30777 ft | 493 kts | 89° |
| 2026-05-06 18:31 | 48.43375 | 12.98299 | 30779 ft | 493 kts | 89° |
| 2026-05-06 18:31 | 48.43844 | 13.08656 | 30748 ft | 501 kts | 90° |
| 2026-05-06 18:32 | 48.44307 | 13.19027 | 30749 ft | 494 kts | 90° |
| 2026-05-06 18:32 | 48.44758 | 13.29346 | 30732 ft | 494 kts | 90° |
| 2026-05-06 18:33 | 48.45199 | 13.39661 | 30731 ft | 493 kts | 90° |
| 2026-05-06 18:33 | 48.45630 | 13.49971 | 30675 ft | 494 kts | 91° |
| 2026-05-06 18:34 | 48.46052 | 13.60361 | 30692 ft | 503 kts | 91° |
| 2026-05-06 18:34 | 48.46474 | 13.70871 | 30692 ft | 502 kts | 91° |
| 2026-05-06 18:35 | 48.46884 | 13.81358 | 30692 ft | 502 kts | 91° |
| 2026-05-06 18:35 | 48.47283 | 13.91822 | 30690 ft | 499 kts | 91° |
| 2026-05-06 18:36 | 48.47481 | 13.97045 | 30559 ft | 500 kts | 92° |
| 2026-05-06 18:36 | 48.47675 | 14.02265 | 30320 ft | 498 kts | 92° |
| 2026-05-06 18:36 | 48.47863 | 14.07390 | 30098 ft | 495 kts | 92° |
| 2026-05-06 18:36 | 48.48050 | 14.12565 | 29860 ft | 494 kts | 92° |
| 2026-05-06 18:37 | 48.48234 | 14.17727 | 29587 ft | 492 kts | 92° |
| 2026-05-06 18:37 | 48.48353 | 14.21135 | 29403 ft | 491 kts | 92° |
| 2026-05-06 18:37 | 48.48593 | 14.27978 | 29024 ft | 487 kts | 92° |
| 2026-05-06 18:37 | 48.48768 | 14.33054 | 28744 ft | 484 kts | 92° |
| 2026-05-06 18:38 | 48.48939 | 14.38112 | 28470 ft | 482 kts | 92° |
| 2026-05-06 18:38 | 48.49108 | 14.43143 | 28148 ft | 479 kts | 92° |
| 2026-05-06 18:38 | 48.49273 | 14.48145 | 27876 ft | 476 kts | 92° |
| 2026-05-06 18:38 | 48.49434 | 14.53036 | 27639 ft | 468 kts | 92° |
| 2026-05-06 18:39 | 48.49593 | 14.57858 | 27427 ft | 452 kts | 92° |
| 2026-05-06 18:39 | 48.49744 | 14.62521 | 27245 ft | 441 kts | 92° |
| 2026-05-06 18:39 | 48.49886 | 14.67142 | 26705 ft | 441 kts | 92° |
| 2026-05-06 18:40 | 48.50161 | 14.76347 | 25789 ft | 435 kts | 92° |
| 2026-05-06 18:40 | 48.50299 | 14.80855 | 25473 ft | 428 kts | 92° |
| 2026-05-06 18:40 | 48.50433 | 14.85324 | 25039 ft | 424 kts | 92° |
| 2026-05-06 18:40 | 48.50564 | 14.89733 | 24719 ft | 419 kts | 92° |
| 2026-05-06 18:41 | 48.50689 | 14.94049 | 24304 ft | 416 kts | 92° |
| 2026-05-06 18:41 | 48.50813 | 14.98389 | 23908 ft | 413 kts | 92° |
| 2026-05-06 18:41 | 48.50935 | 15.02689 | 23527 ft | 409 kts | 92° |
| 2026-05-06 18:41 | 48.51054 | 15.06970 | 23121 ft | 406 kts | 92° |
| 2026-05-06 18:42 | 48.51169 | 15.11214 | 22631 ft | 404 kts | 92° |
| 2026-05-06 18:42 | 48.51282 | 15.15424 | 22154 ft | 401 kts | 92° |
| 2026-05-06 18:42 | 48.51395 | 15.19611 | 21711 ft | 398 kts | 92° |
| 2026-05-06 18:42 | 48.51505 | 15.23774 | 21271 ft | 396 kts | 92° |
| 2026-05-06 18:43 | 48.51613 | 15.27912 | 20818 ft | 394 kts | 92° |
| 2026-05-06 18:43 | 48.51718 | 15.32020 | 20321 ft | 391 kts | 92° |
| 2026-05-06 18:43 | 48.51823 | 15.36118 | 19651 ft | 389 kts | 92° |
| 2026-05-06 18:43 | 48.51926 | 15.40169 | 19055 ft | 385 kts | 92° |
| 2026-05-06 18:44 | 48.51986 | 15.44174 | 18439 ft | 379 kts | 96° |
| 2026-05-06 18:44 | 48.51776 | 15.48103 | 17862 ft | 374 kts | 100° |
| 2026-05-06 18:44 | 48.51548 | 15.51939 | 17455 ft | 371 kts | 99° |
| 2026-05-06 18:44 | 48.51337 | 15.55797 | 17029 ft | 368 kts | 99° |
| 2026-05-06 18:45 | 48.51129 | 15.59627 | 16588 ft | 365 kts | 98° |
| 2026-05-06 18:45 | 48.50918 | 15.63426 | 16214 ft | 361 kts | 98° |
| 2026-05-06 18:45 | 48.50707 | 15.67183 | 15787 ft | 358 kts | 98° |
| 2026-05-06 18:45 | 48.50565 | 15.69655 | 15538 ft | 356 kts | 98° |
| 2026-05-06 18:46 | 48.50277 | 15.74613 | 14988 ft | 353 kts | 98° |
| 2026-05-06 18:46 | 48.50063 | 15.78273 | 14664 ft | 349 kts | 98° |
| 2026-05-06 18:46 | 48.49852 | 15.81849 | 14290 ft | 346 kts | 98° |
| 2026-05-06 18:46 | 48.49638 | 15.85436 | 13930 ft | 343 kts | 98° |
| 2026-05-06 18:47 | 48.49425 | 15.88996 | 13737 ft | 340 kts | 98° |
| 2026-05-06 18:47 | 48.49211 | 15.92551 | 13716 ft | 340 kts | 98° |
| 2026-05-06 18:47 | 48.48997 | 15.96100 | 13652 ft | 339 kts | 99° |
| 2026-05-06 18:47 | 48.48782 | 15.99631 | 13340 ft | 339 kts | 98° |
| 2026-05-06 18:48 | 48.48567 | 16.03153 | 12920 ft | 337 kts | 98° |
| 2026-05-06 18:48 | 48.48238 | 16.06620 | 12447 ft | 332 kts | 111° |
| 2026-05-06 18:48 | 48.47191 | 16.09635 | 12008 ft | 322 kts | 134° |
| 2026-05-06 18:48 | 48.45501 | 16.11734 | 11581 ft | 312 kts | 156° |
| 2026-05-06 18:49 | 48.43468 | 16.12696 | 11158 ft | 305 kts | 177° |
| 2026-05-06 18:49 | 48.41391 | 16.12761 | 10712 ft | 303 kts | 179° |
| 2026-05-06 18:49 | 48.39306 | 16.12944 | 10347 ft | 296 kts | 188° |
| 2026-05-06 18:49 | 48.37356 | 16.12061 | 9921 ft | 293 kts | 205° |
| 2026-05-06 18:50 | 48.35491 | 16.10797 | 9362 ft | 296 kts | 205° |
| 2026-05-06 18:50 | 48.33646 | 16.09556 | 9158 ft | 287 kts | 205° |
| 2026-05-06 18:50 | 48.31776 | 16.08753 | 9070 ft | 277 kts | 185° |
| 2026-05-06 18:50 | 48.29893 | 16.09218 | 8771 ft | 279 kts | 160° |
| 2026-05-06 18:51 | 48.28317 | 16.10927 | 8387 ft | 286 kts | 134° |
| 2026-05-06 18:51 | 48.27375 | 16.13573 | 8026 ft | 293 kts | 107° |
| 2026-05-06 18:51 | 48.27266 | 16.16601 | 7629 ft | 300 kts | 82° |
| 2026-05-06 18:51 | 48.27913 | 16.19584 | 7228 ft | 302 kts | 70° |
| 2026-05-06 18:52 | 48.28668 | 16.22519 | 6998 ft | 297 kts | 70° |
| 2026-05-06 18:52 | 48.29409 | 16.25407 | 6575 ft | 296 kts | 70° |
| 2026-05-06 18:52 | 48.29878 | 16.28340 | 6213 ft | 284 kts | 93° |
| 2026-05-06 18:52 | 48.29828 | 16.31254 | 5853 ft | 276 kts | 95° |
| 2026-05-06 18:53 | 48.29761 | 16.34071 | 5489 ft | 264 kts | 95° |
| 2026-05-06 18:53 | 48.29702 | 16.36785 | 5105 ft | 257 kts | 95° |
| 2026-05-06 18:53 | 48.29653 | 16.39442 | 4746 ft | 253 kts | 95° |
| 2026-05-06 18:53 | 48.29611 | 16.42063 | 4416 ft | 249 kts | 95° |
| 2026-05-06 18:54 | 48.29390 | 16.44519 | 4090 ft | 228 kts | 113° |
| 2026-05-06 18:54 | 48.28867 | 16.46756 | 3717 ft | 225 kts | 115° |
| 2026-05-06 18:54 | 48.28345 | 16.48898 | 3204 ft | 217 kts | 122° |
| 2026-05-06 18:54 | 48.27453 | 16.50543 | 2987 ft | 190 kts | 148° |
| 2026-05-06 18:55 | 48.26419 | 16.51482 | 2993 ft | 164 kts | 164° |
| 2026-05-06 18:55 | 48.25374 | 16.52089 | 2997 ft | 159 kts | 169° |
| 2026-05-06 18:55 | 48.24320 | 16.52573 | 2997 ft | 158 kts | 172° |
| 2026-05-06 18:55 | 48.23265 | 16.53024 | 2933 ft | 158 kts | 171° |
| 2026-05-06 18:56 | 48.22201 | 16.53478 | 2721 ft | 159 kts | 171° |
| 2026-05-06 18:56 | 48.21139 | 16.53931 | 2500 ft | 158 kts | 170° |
| 2026-05-06 18:56 | 48.20106 | 16.54372 | 2309 ft | 147 kts | 169° |
| 2026-05-06 18:56 | 48.19152 | 16.54778 | 2112 ft | 136 kts | 171° |
| 2026-05-06 18:57 | 48.18287 | 16.55144 | 1939 ft | 128 kts | 171° |
| 2026-05-06 18:57 | 48.17441 | 16.55502 | 1772 ft | 126 kts | 171° |
| 2026-05-06 18:57 | 48.16595 | 16.55860 | 1615 ft | 128 kts | 167° |
| 2026-05-06 18:57 | 48.15735 | 16.56228 | 1441 ft | 130 kts | 168° |
| 2026-05-06 18:58 | 48.14863 | 16.56591 | 1254 ft | 134 kts | 166° |
| 2026-05-06 18:58 | 48.13972 | 16.56991 | 1066 ft | 131 kts | 166° |
| 2026-05-06 18:58 | 48.13111 | 16.57365 | 852 ft | 129 kts | 168° |
| 2026-05-06 18:58 | 48.12257 | 16.57709 | 670 ft | 128 kts | 167° |
| 2026-05-06 18:59 | 48.11400 | 16.58061 | 628 ft | 112 kts | 164° |
| 2026-05-06 18:59 | 48.10828 | 16.58299 | 622 ft | 57 kts | 165° |
| 2026-05-06 18:59 | 48.10549 | 16.58409 | 618 ft | 52 kts | 162° |
| 2026-05-06 18:59 | 48.10237 | 16.58445 | 623 ft | 35 kts | 192° |
| 2026-05-06 19:00 | 48.10113 | 16.58346 | 633 ft | 16 kts | 236° |
| 2026-05-06 19:00 | 48.10097 | 16.58218 | 632 ft | 12 kts | 309° |
| 2026-05-06 19:00 | 48.10180 | 16.58165 | 627 ft | 15 kts | 344° |
| 2026-05-06 19:00 | 48.10258 | 16.58132 | 625 ft | 19 kts | 343° |
| 2026-05-06 19:01 | 48.10344 | 16.58090 | 630 ft | 0 kts | 342° |
| 2026-05-06 19:03 | 48.10373 | 16.58077 | 631 ft | 10 kts | 344° |
| 2026-05-06 19:04 | 48.10485 | 16.58032 | 631 ft | 23 kts | 345° |
| 2026-05-06 19:04 | 48.10654 | 16.57963 | 631 ft | 27 kts | 344° |
| 2026-05-06 19:04 | 48.10848 | 16.57878 | 626 ft | 31 kts | 343° |
| 2026-05-06 19:04 | 48.11021 | 16.57802 | 630 ft | 9 kts | 347° |
| 2026-05-06 19:05 | 48.11050 | 16.57791 | 624 ft | 8 kts | 345° |
| 2026-05-06 19:05 | 48.11119 | 16.57756 | 630 ft | 12 kts | 328° |
| 2026-05-06 19:05 | 48.11192 | 16.57609 | 633 ft | 21 kts | 296° |
| 2026-05-06 19:05 | 48.11255 | 16.57418 | 632 ft | 27 kts | 296° |
| 2026-05-06 19:06 | 48.11355 | 16.57112 | 628 ft | 31 kts | 295° |
| 2026-05-06 19:06 | 48.11448 | 16.56821 | 633 ft | 34 kts | 297° |
| 2026-05-06 19:06 | 48.11557 | 16.56488 | 622 ft | 37 kts | 296° |
| 2026-05-06 19:06 | 48.11674 | 16.56129 | 625 ft | 36 kts | 296° |
| 2026-05-06 19:07 | 48.11778 | 16.55806 | 624 ft | 36 kts | 295° |
| 2026-05-06 19:07 | 48.11846 | 16.55594 | 617 ft | 33 kts | 295° |
| 2026-05-06 19:07 | 48.11959 | 16.55231 | 622 ft | 25 kts | 297° |
| 2026-05-06 19:07 | 48.12023 | 16.55019 | 624 ft | 20 kts | 294° |
| 2026-05-06 19:08 | 48.12076 | 16.54850 | 618 ft | 16 kts | 297° |
| 2026-05-06 19:08 | 48.12136 | 16.54688 | 624 ft | 11 kts | 333° |
| 2026-05-06 19:08 | 48.12184 | 16.54700 | 625 ft | 7 kts | 36° |
| 2026-05-06 19:08 | 48.12198 | 16.54715 | 621 ft | 0 kts | 26° |